Time;durP1;ratioP1;P1;durP2;ratioP2;P2;SDS_P1;SDS_P2;PMS_P1;PMS_P2;Temp;Humidity;BMP_temperature;BMP_pressure;BME280_temperature;BME280_humidity;BME280_pressure;Samples;Min_cycle;Max_cycle;Signal;HPM_P1;HPM_P2
2022/03/09 00:00:43;;;;;;;7.10;5.13;;;;;;;-0.04;63.55;101660.25;5088422;28;20203;-81
2022/03/09 00:03:10;;;;;;;8.77;5.17;;;;;;;-0.07;64.06;101662.88;5085275;28;20204;-80
2022/03/09 00:05:37;;;;;;;7.20;5.57;;;;;;;-0.09;64.06;101664.63;5083312;28;20220;-80
2022/03/09 00:08:04;;;;;;;7.00;5.13;;;;;;;-0.12;64.26;101660.28;5081226;28;20216;-80
2022/03/09 00:10:30;;;;;;;8.37;5.40;;;;;;;-0.13;64.50;101665.50;5079549;28;20572;-81
2022/03/09 00:12:58;;;;;;;7.50;5.10;;;;;;;-0.14;64.31;101664.66;5081402;28;20200;-81
2022/03/09 00:15:25;;;;;;;7.20;5.47;;;;;;;-0.16;64.76;101666.41;5080508;28;20205;-80
2022/03/09 00:17:51;;;;;;;7.77;5.30;;;;;;;-0.17;64.70;101671.63;5084901;28;20228;-81
2022/03/09 00:20:18;;;;;;;8.80;5.57;;;;;;;-0.18;64.88;101683.00;5088560;28;20200;-81
2022/03/09 00:22:44;;;;;;;7.17;5.43;;;;;;;-0.19;65.09;101689.13;5083112;28;20211;-81
2022/03/09 00:25:11;;;;;;;8.20;5.33;;;;;;;-0.21;65.08;101694.34;5085698;28;20210;-81
2022/03/09 00:27:37;;;;;;;7.37;5.53;;;;;;;-0.23;65.29;101692.63;5083619;28;20232;-80
2022/03/09 00:30:07;;;;;;;7.90;5.73;;;;;;;-0.25;65.27;101696.97;5084225;28;20291;-81
2022/03/09 00:32:33;;;;;;;8.93;5.77;;;;;;;-0.27;65.43;101685.63;5094718;28;20576;-80
2022/03/09 00:35:00;;;;;;;8.00;5.67;;;;;;;-0.29;65.62;101693.50;5090624;28;20223;-80
2022/03/09 00:37:26;;;;;;;7.70;5.63;;;;;;;-0.31;65.68;101691.75;5080447;28;20243;-81
2022/03/09 00:39:53;;;;;;;11.27;6.17;;;;;;;-0.33;65.70;101685.63;5090541;28;20208;-80
2022/03/09 00:42:20;;;;;;;7.47;6.07;;;;;;;-0.35;65.59;101691.75;5085833;28;20212;-80
2022/03/09 00:44:46;;;;;;;7.20;5.40;;;;;;;-0.37;66.01;101690.91;5080646;28;20211;-80
2022/03/09 00:47:14;;;;;;;7.63;6.00;;;;;;;-0.39;65.94;101687.41;5092121;28;20216;-80
2022/03/09 00:49:41;;;;;;;8.53;5.83;;;;;;;-0.41;66.09;101691.78;5089745;28;20228;-80
2022/03/09 00:52:07;;;;;;;8.33;6.00;;;;;;;-0.43;65.88;101700.50;5090762;28;20224;-80
2022/03/09 00:54:34;;;;;;;8.03;5.60;;;;;;;-0.45;66.04;101710.09;5089541;28;20674;-80
2022/03/09 00:57:00;;;;;;;6.87;5.67;;;;;;;-0.47;66.08;101706.59;5086249;28;20721;-80
2022/03/09 00:59:27;;;;;;;7.70;5.70;;;;;;;-0.48;66.06;101702.25;5092432;28;20231;-80
2022/03/09 01:01:53;;;;;;;8.80;5.73;;;;;;;-0.50;66.15;101706.59;5097070;28;20208;-80
2022/03/09 01:04:21;;;;;;;7.10;5.07;;;;;;;-0.53;66.57;101710.09;5088261;28;20235;-80
2022/03/09 01:06:48;;;;;;;7.17;5.07;;;;;;;-0.54;66.26;101707.50;5095275;28;20698;-80
2022/03/09 01:09:14;;;;;;;7.60;5.20;;;;;;;-0.58;66.50;101708.38;5091486;28;20197;-81
2022/03/09 01:11:41;;;;;;;7.17;5.03;;;;;;;-0.59;66.43;101714.47;5085427;28;20199;-80
2022/03/09 01:14:07;;;;;;;5.90;4.90;;;;;;;-0.63;66.71;101716.22;5084112;28;20210;-80
2022/03/09 01:16:34;;;;;;;7.53;5.40;;;;;;;-0.67;66.33;101722.31;5083512;28;20247;-80
2022/03/09 01:19:01;;;;;;;5.53;4.80;;;;;;;-0.73;66.43;101715.38;5087596;28;20240;-80
2022/03/09 01:21:29;;;;;;;6.17;4.83;;;;;;;-0.76;66.50;101717.09;5097170;28;20208;-79
2022/03/09 01:23:55;;;;;;;7.77;5.03;;;;;;;-0.84;66.51;101709.25;5085936;28;20228;-81
2022/03/09 01:26:22;;;;;;;7.43;5.17;;;;;;;-0.89;67.12;101717.94;5094585;28;20262;-80
2022/03/09 01:28:48;;;;;;;7.27;5.00;;;;;;;-0.93;67.02;101716.22;5091034;28;20197;-81
2022/03/09 01:31:15;;;;;;;6.50;4.83;;;;;;;-0.96;67.39;101719.72;5095728;28;20215;-81
2022/03/09 01:33:41;;;;;;;6.87;5.13;;;;;;;-0.97;67.54;101717.97;5090570;28;20200;-81
2022/03/09 01:36:08;;;;;;;7.77;5.07;;;;;;;-0.99;67.79;101724.94;5097250;28;20305;-81
2022/03/09 01:38:36;;;;;;;7.57;4.97;;;;;;;-1.01;68.01;101721.44;5089151;28;20228;-81
2022/03/09 01:41:03;;;;;;;8.47;5.23;;;;;;;-1.04;67.47;101718.81;5099410;28;20208;-82
2022/03/09 01:43:29;;;;;;;7.67;5.50;;;;;;;-1.05;67.93;101715.31;5091190;28;20209;-82
2022/03/09 01:45:56;;;;;;;12.40;6.53;;;;;;;-1.07;68.22;101721.41;5089350;28;20200;-81
2022/03/09 01:48:22;;;;;;;9.13;5.63;;;;;;;-1.08;68.09;101722.31;5077057;28;20225;-81
2022/03/09 01:50:49;;;;;;;9.60;5.70;;;;;;;-1.11;68.30;101717.09;5092567;28;20213;-80
2022/03/09 01:53:17;;;;;;;7.33;5.27;;;;;;;-1.12;68.32;101713.59;5091455;28;20214;-80
2022/03/09 01:55:45;;;;;;;9.67;5.33;;;;;;;-1.16;68.13;101709.22;5093554;28;20200;-81
2022/03/09 01:58:12;;;;;;;7.97;5.07;;;;;;;-1.18;68.01;101708.34;5081548;28;20235;-81
2022/03/09 02:00:38;;;;;;;6.23;4.53;;;;;;;-1.22;67.82;101710.94;5088978;28;20204;-80
2022/03/09 02:03:05;;;;;;;8.07;5.07;;;;;;;-1.29;67.97;101709.22;5090961;28;20205;-80
2022/03/09 02:05:31;;;;;;;8.30;4.77;;;;;;;-1.31;68.00;101711.81;5090412;28;20208;-81
2022/03/09 02:10:43;;;;;;;5.27;3.57;;;;;;;-1.38;68.18;101710.03;5084908;28;20742;-81
2022/03/09 02:13:11;;;;;;;4.83;4.00;;;;;;;-1.41;68.42;101710.91;5096860;28;20201;-81
2022/03/09 02:15:37;;;;;;;5.57;4.13;;;;;;;-1.44;69.00;101710.06;5096866;28;20212;-81
2022/03/09 02:18:04;;;;;;;5.53;4.10;;;;;;;-1.47;68.61;101710.91;5085640;28;20697;-81
2022/03/09 02:20:31;;;;;;;7.17;5.53;;;;;;;-1.47;69.06;101710.03;5096094;28;20215;-80
2022/03/09 02:23:00;;;;;;;6.57;4.30;;;;;;;-1.48;69.13;101710.91;5090158;28;20553;-81
2022/03/09 02:25:26;;;;;;;5.93;4.23;;;;;;;-1.49;69.34;101714.38;5092155;28;20573;-80
2022/03/09 02:27:53;;;;;;;5.40;3.87;;;;;;;-1.51;69.06;101709.16;5089779;28;20705;-81
2022/03/09 02:30:20;;;;;;;7.60;4.23;;;;;;;-1.51;69.05;101711.75;5081739;28;20212;-80
2022/03/09 02:32:48;;;;;;;5.90;4.13;;;;;;;-1.53;69.72;101718.72;5092604;28;20207;-80
2022/03/09 02:35:16;;;;;;;8.17;4.47;;;;;;;-1.55;69.39;101710.00;5095832;28;20731;-80
2022/03/09 02:37:43;;;;;;;5.03;3.73;;;;;;;-1.55;70.00;101711.75;5090856;28;20224;-80
2022/03/09 02:40:13;;;;;;;6.00;4.50;;;;;;;-1.57;69.82;101709.13;5092663;28;20824;-80
2022/03/09 02:42:40;;;;;;;4.70;4.17;;;;;;;-1.58;69.95;101703.88;5084284;28;20204;-81
2022/03/09 02:45:07;;;;;;;7.87;4.43;;;;;;;-1.59;69.89;101705.63;5095063;28;20208;-81
2022/03/09 02:47:34;;;;;;;5.50;4.00;;;;;;;-1.60;69.80;101705.63;5083288;28;20220;-81
2022/03/09 02:50:01;;;;;;;6.87;4.30;;;;;;;-1.63;69.70;101706.50;5078713;28;20200;-80
2022/03/09 02:52:27;;;;;;;7.40;4.30;;;;;;;-1.65;69.82;101705.63;5084805;28;20213;-80
2022/03/09 02:54:54;;;;;;;5.83;4.33;;;;;;;-1.67;70.01;101704.75;5093350;28;21016;-81
2022/03/09 02:57:22;;;;;;;6.30;4.70;;;;;;;-1.70;69.76;101703.84;5087254;28;20220;-81
2022/03/09 02:59:49;;;;;;;6.93;5.13;;;;;;;-1.72;70.05;101701.25;5094629;28;20224;-80
2022/03/09 03:02:16;;;;;;;9.43;4.33;;;;;;;-1.76;70.03;101708.19;5094311;28;20237;-81
2022/03/09 03:04:42;;;;;;;5.97;4.30;;;;;;;-1.79;70.23;101702.94;5079376;28;20223;-80
2022/03/09 03:07:09;;;;;;;6.03;4.80;;;;;;;-1.81;70.13;101696.00;5089790;28;20227;-80
2022/03/09 03:09:35;;;;;;;7.77;5.20;;;;;;;-1.84;70.25;101702.06;5095247;28;20290;-80
2022/03/09 03:12:02;;;;;;;7.57;5.00;;;;;;;-1.85;70.38;101702.06;5092677;28;20211;-81
2022/03/09 03:14:30;;;;;;;6.77;4.70;;;;;;;-1.84;70.86;101711.66;5083402;28;20209;-80
2022/03/09 03:16:56;;;;;;;6.37;4.60;;;;;;;-1.85;70.80;101705.56;5087429;28;20250;-80
2022/03/09 03:19:23;;;;;;;7.53;5.20;;;;;;;-1.85;70.93;101713.38;5088901;28;20250;-80
2022/03/09 03:21:49;;;;;;;6.93;5.13;;;;;;;-1.85;71.16;101718.59;5089619;28;20215;-80
2022/03/09 03:24:16;;;;;;;7.40;4.87;;;;;;;-1.86;71.50;101715.97;5094837;28;20230;-81
2022/03/09 03:26:42;;;;;;;5.73;4.83;;;;;;;-1.86;71.18;101722.09;5087730;28;20232;-81
2022/03/09 03:29:09;;;;;;;7.07;4.47;;;;;;;-1.88;71.61;101715.97;5106090;28;20593;-81
2022/03/09 03:31:37;;;;;;;6.80;4.90;;;;;;;-1.89;71.64;101721.19;5084754;28;20204;-81
2022/03/09 03:34:03;;;;;;;9.53;4.57;;;;;;;-1.89;72.08;101713.34;5085282;28;20214;-81
2022/03/09 03:36:30;;;;;;;5.77;4.70;;;;;;;-1.90;71.42;101717.69;5094044;28;20331;-80
2022/03/09 03:38:56;;;;;;;7.30;4.50;;;;;;;-1.91;71.38;101712.47;5094370;28;20255;-81
2022/03/09 03:41:23;;;;;;;5.60;5.10;;;;;;;-1.93;72.21;101706.38;5094754;28;20208;-81
2022/03/09 03:43:49;;;;;;;7.73;5.00;;;;;;;-1.95;71.86;101711.56;5085025;28;20211;-81
2022/03/09 03:46:16;;;;;;;6.90;4.40;;;;;;;-1.95;72.21;101711.56;5093728;28;20200;-80
2022/03/09 03:48:44;;;;;;;5.67;4.33;;;;;;;-1.98;71.86;101698.53;5082581;28;20214;-80
2022/03/09 03:51:10;;;;;;;6.97;4.30;;;;;;;-1.96;72.40;101706.34;5089177;28;20660;-80
2022/03/09 03:53:37;;;;;;;7.13;4.43;;;;;;;-1.97;71.98;101709.84;5090150;28;20214;-80
2022/03/09 03:56:03;;;;;;;6.10;4.10;;;;;;;-1.98;72.07;101718.56;5110592;28;20204;-80
2022/03/09 03:58:30;;;;;;;5.23;3.87;;;;;;;-1.99;72.32;101712.44;5106372;28;20228;-80
2022/03/09 04:00:56;;;;;;;6.00;4.13;;;;;;;-2.00;72.29;101715.06;5096281;28;20204;-80
2022/03/09 04:03:23;;;;;;;5.57;3.93;;;;;;;-2.02;72.44;101715.03;5096508;28;20218;-81
2022/03/09 04:05:51;;;;;;;5.43;3.70;;;;;;;-2.02;72.41;101716.78;5093402;28;20831;-81
2022/03/09 04:08:17;;;;;;;6.30;4.30;;;;;;;-2.03;72.13;101717.66;5081175;28;20235;-80
2022/03/09 04:10:44;;;;;;;5.60;4.07;;;;;;;-2.05;72.81;101719.38;5093141;28;20208;-81
2022/03/09 04:13:10;;;;;;;6.17;4.40;;;;;;;-2.06;72.48;101713.28;5094260;28;20200;-80
2022/03/09 04:15:37;;;;;;;5.70;4.03;;;;;;;-2.06;72.75;101718.50;5085659;28;20546;-81
2022/03/09 04:18:04;;;;;;;5.37;4.03;;;;;;;-2.07;72.97;101724.56;5092659;28;20220;-81
2022/03/09 04:20:30;;;;;;;6.33;4.10;;;;;;;-2.08;72.87;101732.41;5090888;28;20232;-80
2022/03/09 04:22:58;;;;;;;7.57;4.50;;;;;;;-2.07;72.43;101741.97;5082051;28;20203;-80
2022/03/09 04:25:26;;;;;;;5.80;4.00;;;;;;;-2.08;72.83;101745.44;5085930;28;20208;-81
2022/03/09 04:27:53;;;;;;;6.47;4.70;;;;;;;-2.11;72.88;101735.84;5085146;28;20232;-81
2022/03/09 04:30:19;;;;;;;8.13;4.07;;;;;;;-2.13;72.69;101735.84;5094141;28;20609;-80
2022/03/09 04:32:46;;;;;;;6.67;4.23;;;;;;;-2.13;72.60;101729.75;5087845;28;20202;-81
2022/03/09 04:35:12;;;;;;;7.43;4.47;;;;;;;-2.14;73.19;101734.09;5084181;28;20203;-81
2022/03/09 04:37:39;;;;;;;7.33;4.70;;;;;;;-2.15;72.81;101732.34;5086645;28;20224;-81
2022/03/09 04:40:08;;;;;;;7.27;4.60;;;;;;;-2.18;73.01;101729.75;5096647;28;20222;-80
2022/03/09 04:42:35;;;;;;;6.03;4.17;;;;;;;-2.18;72.90;101728.88;5080362;28;20197;-80
2022/03/09 04:45:02;;;;;;;5.77;4.07;;;;;;;-2.19;73.35;101727.13;5084987;28;20230;-80
2022/03/09 04:47:28;;;;;;;6.27;4.27;;;;;;;-2.21;73.43;101734.94;5084897;28;20318;-81
2022/03/09 04:49:55;;;;;;;7.37;4.67;;;;;;;-2.22;73.67;101727.97;5089222;28;20211;-80
2022/03/09 04:52:22;;;;;;;6.90;4.20;;;;;;;-2.24;73.76;101732.31;5087192;28;20216;-80
2022/03/09 04:54:48;;;;;;;5.57;4.13;;;;;;;-2.28;73.22;101730.53;5093273;28;20212;-80
2022/03/09 04:57:16;;;;;;;7.03;4.50;;;;;;;-2.31;73.79;101733.13;5085227;28;20220;-80
2022/03/09 04:59:43;;;;;;;7.97;4.47;;;;;;;-2.36;73.70;101732.25;5082819;28;20224;-81
2022/03/09 05:02:10;;;;;;;5.97;4.30;;;;;;;-2.37;73.42;101748.75;5086342;28;20817;-80
2022/03/09 05:04:36;;;;;;;6.30;4.57;;;;;;;-2.38;74.11;101753.97;5084615;28;20552;-80
2022/03/09 05:07:03;;;;;;;7.30;4.70;;;;;;;-2.39;73.90;101745.25;5085712;28;20231;-79
2022/03/09 05:09:30;;;;;;;8.60;4.77;;;;;;;-2.40;73.90;101750.47;5081188;28;20201;-80
2022/03/09 05:11:56;;;;;;;6.37;5.17;;;;;;;-2.41;73.94;101748.72;5083233;28;20205;-80
2022/03/09 05:14:24;;;;;;;8.80;4.40;;;;;;;-2.41;74.09;101741.75;5084168;28;20208;-80
2022/03/09 05:16:51;;;;;;;8.67;4.67;;;;;;;-2.41;74.16;101743.50;5082090;28;20698;-80
2022/03/09 05:19:17;;;;;;;7.00;4.10;;;;;;;-2.42;74.39;101749.59;5078292;28;20232;-80
2022/03/09 05:21:44;;;;;;;6.97;4.60;;;;;;;-2.42;74.51;101746.97;5079552;28;20211;-79
2022/03/09 05:24:11;;;;;;;8.50;4.77;;;;;;;-2.44;73.99;101746.97;5080800;28;20268;-81
2022/03/09 05:26:37;;;;;;;5.80;4.20;;;;;;;-2.43;74.23;101748.72;5080441;28;20244;-81
2022/03/09 05:29:04;;;;;;;6.93;4.07;;;;;;;-2.43;74.37;101753.03;5080826;28;20197;-79
2022/03/09 05:31:32;;;;;;;4.97;4.33;;;;;;;-2.44;74.42;101746.97;5083626;28;20314;-80
2022/03/09 05:33:59;;;;;;;8.53;4.57;;;;;;;-2.45;74.44;101748.69;5091106;28;20211;-81
2022/03/09 05:36:26;;;;;;;8.03;5.20;;;;;;;-2.44;74.01;101746.97;5075860;28;20228;-81
2022/03/09 05:38:52;;;;;;;6.43;4.77;;;;;;;-2.44;74.76;101746.97;5085787;28;20673;-81
2022/03/09 05:41:21;;;;;;;6.03;4.37;;;;;;;-2.44;74.70;101749.56;5085276;28;20217;-82
2022/03/09 05:43:48;;;;;;;5.87;5.00;;;;;;;-2.45;74.34;101745.22;5080068;28;20292;-81
2022/03/09 05:46:14;;;;;;;5.87;4.47;;;;;;;-2.46;74.24;101735.63;5084430;28;20647;-79
2022/03/09 05:48:42;;;;;;;8.23;5.27;;;;;;;-2.47;74.44;101741.72;5083837;28;20208;-81
2022/03/09 05:51:09;;;;;;;6.37;4.47;;;;;;;-2.46;74.28;101733.03;5083272;28;20203;-79
2022/03/09 05:53:36;;;;;;;8.73;5.70;;;;;;;-2.48;74.35;101733.00;5083787;28;20571;-79
2022/03/09 05:56:02;;;;;;;7.43;5.07;;;;;;;-2.49;74.48;101735.59;5083720;28;20201;-79
2022/03/09 05:58:29;;;;;;;6.13;5.20;;;;;;;-2.48;74.44;101734.75;5087022;28;20231;-81
2022/03/09 06:00:55;;;;;;;9.23;4.90;;;;;;;-2.50;74.77;101739.94;5083933;28;20235;-80
2022/03/09 06:03:22;;;;;;;9.97;4.77;;;;;;;-2.49;74.44;101735.59;5082491;28;20215;-81
2022/03/09 06:05:49;;;;;;;8.10;5.13;;;;;;;-2.50;74.62;101734.72;5082108;28;20651;-81
2022/03/09 06:08:16;;;;;;;8.57;4.60;;;;;;;-2.48;74.90;101739.97;5084996;28;20698;-81
2022/03/09 06:10:43;;;;;;;6.77;4.53;;;;;;;-2.45;74.94;101742.59;5093475;28;20228;-81
2022/03/09 06:13:09;;;;;;;6.27;4.33;;;;;;;-2.43;74.94;101733.06;5087240;28;20207;-81
2022/03/09 06:15:36;;;;;;;6.50;4.50;;;;;;;-2.41;74.77;101740.91;5084708;28;20200;-81
2022/03/09 06:18:02;;;;;;;7.77;4.90;;;;;;;-2.41;74.88;101749.59;5086238;28;20227;-81
2022/03/09 06:20:29;;;;;;;5.47;4.83;;;;;;;-2.38;75.41;101754.84;5086606;28;20273;-81
2022/03/09 06:22:57;;;;;;;7.30;4.57;;;;;;;-2.37;74.77;101750.50;5088106;28;20208;-81
2022/03/09 06:25:23;;;;;;;8.27;4.90;;;;;;;-2.36;74.94;101744.41;5092230;28;20204;-81
2022/03/09 06:27:52;;;;;;;9.27;5.20;;;;;;;-2.35;75.31;101741.81;5082412;28;20229;-81
2022/03/09 06:30:19;;;;;;;7.83;5.40;;;;;;;-2.33;75.06;101747.88;5085159;28;20196;-80
2022/03/09 06:32:49;;;;;;;10.07;5.47;;;;;;;-2.31;75.35;101755.72;5081799;28;20201;-80
2022/03/09 06:35:16;;;;;;;6.73;4.97;;;;;;;-2.29;75.56;101752.28;5083347;28;20683;-80
2022/03/09 06:37:43;;;;;;;8.87;5.13;;;;;;;-2.26;75.62;101749.69;5086369;28;20220;-80
2022/03/09 06:40:12;;;;;;;7.03;4.83;;;;;;;-2.23;75.36;101751.44;5094514;28;20228;-80
2022/03/09 06:42:39;;;;;;;7.67;5.37;;;;;;;-2.17;75.56;101751.50;5094435;28;20216;-80
2022/03/09 06:45:06;;;;;;;7.87;4.90;;;;;;;-2.11;75.80;101751.53;5089011;28;20204;-80
2022/03/09 06:47:35;;;;;;;7.23;5.00;;;;;;;-2.02;75.87;101758.53;5087791;28;20220;-80
2022/03/09 06:50:02;;;;;;;8.87;5.67;;;;;;;-1.95;76.31;101758.56;5081166;28;20674;-80
2022/03/09 06:52:29;;;;;;;6.67;5.37;;;;;;;-1.89;75.85;101762.97;5086726;28;20243;-80
2022/03/09 06:54:55;;;;;;;8.87;5.27;;;;;;;-1.81;75.79;101762.16;5086027;28;20211;-81
2022/03/09 06:57:23;;;;;;;8.27;5.93;;;;;;;-1.74;76.34;101770.88;5085687;28;20232;-81
2022/03/09 06:59:50;;;;;;;8.50;5.50;;;;;;;-1.68;76.57;101768.28;5085786;28;20221;-80
2022/03/09 07:02:17;;;;;;;9.17;5.43;;;;;;;-1.63;76.51;101782.25;5085911;28;20215;-81
2022/03/09 07:04:43;;;;;;;9.23;6.23;;;;;;;-1.60;76.07;101777.03;5094483;28;20207;-80
2022/03/09 07:07:10;;;;;;;7.97;5.80;;;;;;;-1.55;76.76;101774.44;5092636;28;20775;-80
2022/03/09 07:09:36;;;;;;;9.70;5.70;;;;;;;-1.47;76.50;101778.84;5088549;28;20196;-81
2022/03/09 07:12:03;;;;;;;9.27;5.77;;;;;;;-1.38;76.62;101771.88;5090824;28;20218;-81
2022/03/09 07:14:31;;;;;;;8.93;6.03;;;;;;;-1.24;77.35;101778.91;5084357;28;20197;-80
2022/03/09 07:16:58;;;;;;;11.07;5.83;;;;;;;-1.11;77.67;101778.09;5089570;28;20224;-81
2022/03/09 07:19:24;;;;;;;9.73;6.00;;;;;;;-0.98;77.19;101784.19;5093815;28;20200;-80
2022/03/09 07:21:51;;;;;;;16.00;8.33;;;;;;;-0.86;77.74;101783.34;5092066;28;20210;-80
2022/03/09 07:24:18;;;;;;;12.47;8.83;;;;;;;-0.75;77.94;101782.50;5093768;28;20211;-80
2022/03/09 07:26:44;;;;;;;11.43;6.93;;;;;;;-0.63;77.81;101785.97;5093429;28;20566;-78
2022/03/09 07:29:12;;;;;;;9.77;6.20;;;;;;;-0.55;77.89;101785.13;5092976;28;20204;-78
2022/03/09 07:31:40;;;;;;;9.97;7.03;;;;;;;-0.48;77.91;101781.63;5093135;28;20679;-79
2022/03/09 07:34:07;;;;;;;13.50;7.57;;;;;;;-0.41;77.24;101777.28;5081865;28;20211;-81
2022/03/09 07:36:34;;;;;;;10.03;6.90;;;;;;;-0.31;77.55;101783.34;5092364;28;20224;-79
2022/03/09 07:39:00;;;;;;;11.07;5.83;;;;;;;-0.22;77.56;101791.22;5092469;28;20223;-79
2022/03/09 07:41:27;;;;;;;9.63;5.83;;;;;;;-0.11;77.28;101785.09;5088325;28;20221;-79
2022/03/09 07:43:53;;;;;;;7.83;5.40;;;;;;;-0.01;77.10;101785.97;5084055;28;20220;-80
2022/03/09 07:46:20;;;;;;;9.37;6.20;;;;;;;0.11;77.52;101783.31;5092073;28;20215;-80
2022/03/09 07:48:48;;;;;;;10.47;5.73;;;;;;;0.22;77.01;101781.50;5083428;28;20226;-79
2022/03/09 07:51:14;;;;;;;8.27;6.13;;;;;;;0.33;76.95;101786.75;5082729;28;20312;-78
2022/03/09 07:53:43;;;;;;;8.20;6.13;;;;;;;0.47;76.74;101787.56;5090100;28;20843;-79
2022/03/09 07:56:11;;;;;;;7.77;6.03;;;;;;;0.62;76.77;101784.88;5095072;28;20230;-78
2022/03/09 07:58:38;;;;;;;8.70;5.73;;;;;;;0.80;76.76;101783.91;5084036;28;20197;-77
2022/03/09 08:01:04;;;;;;;8.23;5.77;;;;;;;0.95;76.50;101783.81;5086644;28;20277;-79
2022/03/09 08:03:31;;;;;;;8.27;5.90;;;;;;;1.13;76.13;101779.34;5088425;28;20201;-78
2022/03/09 08:05:59;;;;;;;9.30;5.73;;;;;;;1.27;75.49;101783.59;5092443;28;20201;-77
2022/03/09 08:08:26;;;;;;;6.50;5.23;;;;;;;1.45;74.96;101786.97;5090850;28;20228;-78
2022/03/09 08:10:52;;;;;;;12.23;6.07;;;;;;;1.63;75.02;101784.19;5090449;28;20200;-77
2022/03/09 08:13:19;;;;;;;9.53;5.83;;;;;;;1.83;74.41;101784.03;5087741;28;20208;-78
2022/03/09 08:15:45;;;;;;;8.00;5.30;;;;;;;2.03;74.07;101780.31;5093940;28;20257;-78
2022/03/09 08:18:12;;;;;;;11.27;7.43;;;;;;;2.26;73.39;101781.84;5083790;28;20573;-77
2022/03/09 08:20:39;;;;;;;7.50;5.77;;;;;;;2.49;72.74;101774.56;5091107;28;20234;-77
2022/03/09 08:23:08;;;;;;;10.50;5.03;;;;;;;2.73;72.72;101776.00;5092706;28;20272;-78
2022/03/09 08:25:35;;;;;;;7.90;5.00;;;;;;;2.95;72.06;101777.44;5092433;28;20200;-78
2022/03/09 08:28:01;;;;;;;7.30;5.30;;;;;;;3.19;70.88;101781.50;5093620;28;20219;-79
2022/03/09 08:30:28;;;;;;;8.33;5.57;;;;;;;3.41;68.98;101776.75;5091992;28;20205;-77
2022/03/09 08:32:56;;;;;;;8.00;5.03;;;;;;;3.62;67.59;101771.13;5093001;28;20208;-78
2022/03/09 08:35:22;;;;;;;8.00;5.03;;;;;;;3.82;66.75;101776.06;5096090;28;20206;-78
2022/03/09 08:37:49;;;;;;;7.53;5.13;;;;;;;4.03;65.87;101775.69;5088596;28;20220;-78
2022/03/09 08:40:17;;;;;;;9.10;4.70;;;;;;;4.25;64.84;101778.78;5093861;28;20235;-79
2022/03/09 08:42:44;;;;;;;10.13;5.27;;;;;;;4.48;64.15;101780.94;5091083;28;20209;-79
2022/03/09 08:45:10;;;;;;;9.87;5.43;;;;;;;4.71;62.82;101778.72;5090474;28;20214;-78
2022/03/09 08:47:38;;;;;;;10.00;5.80;;;;;;;4.94;61.74;101785.28;5085057;28;20231;-78
2022/03/09 08:50:06;;;;;;;13.37;6.00;;;;;;;5.17;61.07;101785.63;5091444;28;20517;-78
2022/03/09 08:52:32;;;;;;;9.27;6.03;;;;;;;5.39;60.13;101789.50;5094583;28;20280;-77
2022/03/09 08:54:59;;;;;;;7.83;6.17;;;;;;;5.61;59.14;101786.34;5093942;28;20782;-79
2022/03/09 08:57:26;;;;;;;8.20;6.07;;;;;;;5.82;58.48;101791.09;5092327;28;20228;-79
2022/03/09 08:59:53;;;;;;;6.83;5.43;;;;;;;6.03;57.05;101793.22;5093893;28;20211;-78
2022/03/09 09:02:21;;;;;;;8.50;5.93;;;;;;;6.19;56.12;101789.25;5093071;28;20215;-77
2022/03/09 09:04:47;;;;;;;8.40;6.33;;;;;;;6.36;55.61;101801.13;5101224;28;20230;-78
2022/03/09 09:07:14;;;;;;;12.17;6.23;;;;;;;6.51;54.72;101796.28;5098934;28;20521;-78
2022/03/09 09:09:40;;;;;;;8.87;6.20;;;;;;;6.64;53.44;101791.50;5095421;28;20218;-78
2022/03/09 09:12:07;;;;;;;8.80;5.53;;;;;;;6.75;52.82;101799.16;5090009;28;20213;-78
2022/03/09 09:14:35;;;;;;;9.73;7.00;;;;;;;6.90;52.18;101793.41;5098675;28;20785;-79
2022/03/09 09:17:02;;;;;;;10.37;6.13;;;;;;;7.02;51.62;101795.66;5103241;28;20220;-78
2022/03/09 09:19:29;;;;;;;8.50;5.70;;;;;;;7.15;51.35;101791.75;5097804;28;20227;-79
2022/03/09 09:21:56;;;;;;;8.70;7.20;;;;;;;7.34;51.71;101794.69;5100674;28;20258;-79
2022/03/09 09:24:23;;;;;;;7.33;6.23;;;;;;;7.49;49.44;101795.97;5092114;28;20627;-78
2022/03/09 09:26:49;;;;;;;8.53;6.10;;;;;;;7.63;49.61;101793.72;5089595;28;20228;-78
2022/03/09 09:29:16;;;;;;;7.97;6.50;;;;;;;7.80;49.00;101795.81;5098474;28;20200;-78
2022/03/09 09:31:44;;;;;;;7.73;5.57;;;;;;;7.98;48.46;101785.47;5102984;28;20204;-78
2022/03/09 09:34:10;;;;;;;6.90;5.53;;;;;;;8.15;47.56;101799.91;5094139;28;20271;-78
2022/03/09 09:36:39;;;;;;;7.50;5.47;;;;;;;8.30;47.49;101794.06;5095082;28;20224;-77
2022/03/09 09:39:05;;;;;;;8.10;6.07;;;;;;;8.46;46.74;101794.41;5093610;28;20235;-78
2022/03/09 09:41:33;;;;;;;7.13;6.10;;;;;;;8.61;45.71;101799.16;5101863;28;20224;-79
2022/03/09 09:44:00;;;;;;;9.30;5.53;;;;;;;8.75;45.33;101796.00;5105031;28;20204;-78
2022/03/09 09:46:28;;;;;;;9.93;6.10;;;;;;;8.86;45.16;101794.66;5104936;28;20678;-79
2022/03/09 09:48:57;;;;;;;8.90;6.40;;;;;;;9.03;44.22;101794.03;5105070;28;20208;-78
2022/03/09 09:51:24;;;;;;;8.33;5.83;;;;;;;9.21;44.34;101784.47;5105222;28;20219;-78
2022/03/09 09:53:52;;;;;;;7.73;5.63;;;;;;;9.32;43.39;101783.09;5106002;28;20491;-78
2022/03/09 09:56:19;;;;;;;7.30;5.97;;;;;;;9.45;43.05;101785.28;5105614;28;20214;-78
2022/03/09 09:58:45;;;;;;;10.10;6.10;;;;;;;9.57;42.45;101780.31;5101870;28;20829;-79
2022/03/09 10:01:13;;;;;;;8.53;5.80;;;;;;;9.68;41.98;101777.19;5100302;28;20224;-78
2022/03/09 10:03:39;;;;;;;9.43;6.20;;;;;;;9.75;41.07;101773.38;5095557;28;20294;-78
2022/03/09 10:06:07;;;;;;;8.80;6.13;;;;;;;9.82;40.97;101771.31;5099324;28;20206;-78
2022/03/09 10:08:35;;;;;;;10.47;6.13;;;;;;;9.88;40.79;101777.22;5092314;28;20211;-78
2022/03/09 10:11:03;;;;;;;8.37;6.27;;;;;;;9.98;40.47;101783.91;5094600;28;20193;-79
2022/03/09 10:13:31;;;;;;;8.77;6.13;;;;;;;10.02;40.93;101772.22;5096680;28;20733;-78
2022/03/09 10:16:12;;;;;;;9.43;5.90;;;;;;;10.04;40.43;101772.13;5097381;28;20586;-78
2022/03/09 10:18:40;;;;;;;9.87;6.37;;;;;;;10.03;40.44;101775.75;5095842;28;20208;-79
2022/03/09 10:21:15;;;;;;;10.27;6.37;;;;;;;10.04;40.39;101770.31;5101899;28;20227;-78
2022/03/09 10:23:56;;;;;;;9.40;6.00;;;;;;;10.09;40.22;101775.44;5105170;28;20200;-78
2022/03/09 10:26:26;;;;;;;7.90;6.27;;;;;;;10.14;40.05;101786.78;5104367;28;20204;-79
2022/03/09 10:29:01;;;;;;;9.30;6.33;;;;;;;10.21;39.94;101785.59;5105028;28;20208;-78
2022/03/09 10:31:35;;;;;;;8.60;5.83;;;;;;;10.25;39.52;101783.66;5105297;28;20199;-79
2022/03/09 10:34:12;;;;;;;8.63;5.60;;;;;;;10.33;39.35;101773.56;5104024;28;20203;-79
2022/03/09 10:36:55;;;;;;;9.63;5.70;;;;;;;10.43;38.85;101774.84;5099832;28;20577;-78
2022/03/09 10:39:23;;;;;;;5.67;4.97;;;;;;;10.50;38.66;101775.47;5098925;28;20221;-78
2022/03/09 10:41:49;;;;;;;7.43;5.03;;;;;;;10.59;38.45;101777.69;5096383;28;20234;-79
2022/03/09 10:44:16;;;;;;;6.50;5.20;;;;;;;10.66;37.95;101772.03;5102318;28;20223;-78
2022/03/09 10:46:45;;;;;;;6.13;4.57;;;;;;;10.74;36.99;101775.22;5102894;28;20626;-79
2022/03/09 10:49:13;;;;;;;5.73;4.90;;;;;;;10.81;36.16;101774.91;5103991;28;20214;-79
2022/03/09 10:51:44;;;;;;;6.73;5.27;;;;;;;10.87;36.18;101775.50;5103773;28;20581;-78
2022/03/09 10:54:16;;;;;;;7.83;5.53;;;;;;;10.96;35.99;101772.38;5103215;28;20252;-79
2022/03/09 10:56:43;;;;;;;5.23;4.43;;;;;;;11.05;35.39;101771.97;5103873;28;20641;-78
2022/03/09 10:59:17;;;;;;;5.20;4.30;;;;;;;11.11;34.79;101763.66;5103929;28;20213;-78
2022/03/09 11:01:44;;;;;;;5.60;4.50;;;;;;;11.19;34.38;101773.97;5095402;28;20251;-78
2022/03/09 11:04:16;;;;;;;5.70;4.50;;;;;;;11.26;33.79;101764.75;5102846;28;20294;-78
2022/03/09 11:06:47;;;;;;;5.73;4.90;;;;;;;11.31;33.69;101767.16;5102765;28;20238;-78
2022/03/09 11:09:16;;;;;;;6.80;5.00;;;;;;;11.37;33.70;101757.06;5103213;28;20260;-78
2022/03/09 11:11:45;;;;;;;6.40;4.97;;;;;;;11.44;33.63;101758.53;5098046;28;20193;-78
2022/03/09 11:14:13;;;;;;;5.93;5.27;;;;;;;11.51;33.56;101756.38;5100943;28;20574;-79
2022/03/09 11:16:41;;;;;;;6.73;5.00;;;;;;;11.56;33.32;101754.38;5102013;28;20225;-79
2022/03/09 11:19:09;;;;;;;5.63;4.83;;;;;;;11.64;32.91;101757.53;5099915;28;20237;-79
2022/03/09 11:21:36;;;;;;;6.00;4.77;;;;;;;11.68;32.59;101747.53;5097583;28;20241;-78
2022/03/09 11:24:07;;;;;;;6.87;5.37;;;;;;;11.68;32.63;101751.06;5101415;28;20213;-78
2022/03/09 11:26:36;;;;;;;5.97;4.90;;;;;;;11.73;32.35;101746.38;5095418;28;20223;-78
2022/03/09 11:29:06;;;;;;;5.93;4.40;;;;;;;11.78;31.99;101749.72;5096760;28;20521;-78